MMSD/SJD METAR and TAF weather

Enter ICAO airport designator
Station Type Date Time Source
MMSD METAR 2022/06/30 11:47 UTC NOAA

MMSD 301147Z 00000KT 10SM SKC 25/21 A2997 RMK SLP133 5//// 907


Station Type Date Time Source
MMSD Decoded METAR 2022/06/30 11:47 UTC NOAA

San Jose Del Cabo , Mexico (MMSD) 23-09N 109-42W
Jun 30, 2022 - 07:47 AM EDT / 2022.06.30 1147 UTC
Wind: Calm:0
Visibility: 10 mile(s):0
Sky conditions: clear
Temperature: 77 F (25 C)
Dew Point: 69 F (21 C)
Relative Humidity: 78%
Pressure (altimeter): 29.97 in. Hg (1014 hPa)
ob: MMSD 301147Z 00000KT 10SM SKC 25/21 A2997 RMK SLP133 5//// 907
cycle: 12

Station Type Date Time Source
MMSD TAF 2022/06/30 06:48 UTC NOAA

TAF MMSD 300439Z 3006/0106 12005KT P6SM SKC
FM301800 14012KT P6SM SCT030
TEMPO 3023/0103 6SM -RA SCT030CB

Example: see airport list